Time;durP1;ratioP1;P1;durP2;ratioP2;P2;SDS_P1;SDS_P2;PMS_P1;PMS_P2;Temp;Humidity;BMP_temperature;BMP_pressure;BME280_temperature;BME280_humidity;BME280_pressure;Samples;Min_cycle;Max_cycle;Signal;HPM_P1;HPM_P2
2023/03/31 00:01:33;;;;;;;7.80;1.80;;;;;;;15.56;59.07;100180.94;5059608;27;99402;-71
2023/03/31 00:04:03;;;;;;;7.68;1.65;;;;;;;15.65;58.88;100180.38;5048690;27;98267;-71
2023/03/31 00:06:30;;;;;;;10.40;1.83;;;;;;;15.40;59.64;100172.22;5059548;27;97521;-71
2023/03/31 00:09:00;;;;;;;5.50;1.58;;;;;;;15.55;59.38;100173.94;5054761;27;96929;-70
2023/03/31 00:11:27;;;;;;;7.13;1.90;;;;;;;15.52;59.57;100182.09;5055938;27;99523;-71
2023/03/31 00:13:54;;;;;;;8.23;1.52;;;;;;;15.60;59.24;100176.31;5051146;27;99100;-71
2023/03/31 00:16:20;;;;;;;5.60;1.92;;;;;;;15.30;59.40;100163.97;5059255;27;96869;-72
2023/03/31 00:18:49;;;;;;;8.38;2.13;;;;;;;15.38;59.19;100169.66;5052793;27;97874;-71
2023/03/31 00:21:24;;;;;;;4.55;1.27;;;;;;;15.45;59.25;100164.78;5055072;27;99060;-70
2023/03/31 00:23:50;;;;;;;7.70;1.80;;;;;;;15.46;59.28;100170.03;5058200;27;97926;-70
2023/03/31 00:26:17;;;;;;;5.18;1.17;;;;;;;15.33;59.26;100157.59;5060567;27;96780;-71
2023/03/31 00:28:43;;;;;;;6.65;1.52;;;;;;;15.50;59.26;100160.88;5056592;27;98512;-71
2023/03/31 00:31:09;;;;;;;5.40;1.95;;;;;;;15.51;59.00;100157.25;5052510;27;99096;-71
2023/03/31 00:33:36;;;;;;;5.47;1.20;;;;;;;15.47;59.02;100153.09;5059105;27;99012;-70
2023/03/31 00:36:04;;;;;;;4.88;1.30;;;;;;;15.42;59.45;100154.38;5060137;27;97444;-71
2023/03/31 00:38:31;;;;;;;6.13;1.70;;;;;;;15.45;59.41;100144.34;5052346;27;98844;-72
2023/03/31 00:40:59;;;;;;;7.30;1.55;;;;;;;15.28;59.46;100149.94;5054107;27;98960;-71
2023/03/31 00:43:29;;;;;;;6.13;1.27;;;;;;;15.49;58.66;100143.19;5051223;27;99409;-71
2023/03/31 00:46:03;;;;;;;4.57;1.20;;;;;;;15.37;59.18;100143.13;5050920;27;97009;-71
2023/03/31 00:48:31;;;;;;;4.80;1.15;;;;;;;15.35;59.12;100142.41;5060549;27;97157;-72
2023/03/31 00:51:04;;;;;;;3.95;0.85;;;;;;;15.47;58.91;100137.13;5053759;27;99111;-72
2023/03/31 00:53:34;;;;;;;8.55;1.77;;;;;;;15.08;59.43;100137.88;5051239;27;101440;-72
2023/03/31 00:56:05;;;;;;;8.77;1.67;;;;;;;15.29;59.04;100135.66;5049365;27;98700;-72
2023/03/31 00:58:32;;;;;;;3.38;1.00;;;;;;;15.14;59.47;100133.97;5064106;27;97143;-71
2023/03/31 01:01:02;;;;;;;8.98;1.63;;;;;;;15.21;59.17;100137.97;5054694;27;98971;-72
2023/03/31 01:03:29;;;;;;;10.43;1.63;;;;;;;15.13;59.79;100129.59;5052520;27;98812;-71
2023/03/31 01:06:00;;;;;;;6.93;1.30;;;;;;;15.23;59.12;100128.03;5052342;27;96886;-72
2023/03/31 01:08:27;;;;;;;7.50;1.50;;;;;;;15.14;59.64;100131.31;5052410;27;99115;-71
2023/03/31 01:10:59;;;;;;;9.30;1.20;;;;;;;15.10;59.60;100122.66;5054776;27;99615;-72
2023/03/31 01:13:26;;;;;;;9.48;1.45;;;;;;;14.98;60.03;100120.78;5049160;27;99072;-74
2023/03/31 01:15:53;;;;;;;1.73;0.80;;;;;;;15.01;59.93;100104.63;5061303;27;96868;-72
2023/03/31 01:18:20;;;;;;;6.15;1.25;;;;;;;15.03;59.35;100105.38;5056303;27;97262;-73
2023/03/31 01:21:13;;;;;;;7.40;1.13;;;;;;;14.89;59.89;100101.91;5057681;27;99288;-71
2023/03/31 01:23:58;;;;;;;8.80;1.73;;;;;;;15.03;59.40;100101.88;5036937;27;101419;-71
2023/03/31 01:26:46;;;;;;;3.28;1.10;;;;;;;15.11;59.40;100094.25;5052068;27;97224;-72
2023/03/31 01:29:36;;;;;;;3.15;1.15;;;;;;;15.02;59.32;100087.72;5047760;27;98499;-71
2023/03/31 01:32:41;;;;;;;3.00;1.08;;;;;;;14.88;60.12;100094.88;5050950;27;98992;-72
2023/03/31 01:35:36;;;;;;;8.93;1.30;;;;;;;14.90;59.57;100087.66;5049699;27;98922;-71
2023/03/31 01:38:44;;;;;;;6.38;1.70;;;;;;;14.61;60.41;100097.47;5053651;27;96852;-71
2023/03/31 01:41:35;;;;;;;7.75;1.10;;;;;;;14.67;60.36;100079.31;5050583;27;97949;-72
2023/03/31 01:44:08;;;;;;;9.35;1.50;;;;;;;14.72;60.06;100085.19;5054942;27;99286;-71
2023/03/31 01:46:40;;;;;;;5.20;1.20;;;;;;;14.65;60.35;100072.38;5056903;27;98949;-71
2023/03/31 01:49:18;;;;;;;6.78;1.30;;;;;;;14.61;60.55;100081.50;5051291;27;96822;-71
2023/03/31 01:51:52;;;;;;;5.05;1.27;;;;;;;14.61;60.57;100084.16;5054002;27;96703;-72
2023/03/31 01:54:23;;;;;;;7.07;1.75;;;;;;;14.68;60.37;100080.19;5054142;27;102598;-72
2023/03/31 01:56:55;;;;;;;7.25;1.35;;;;;;;14.72;60.26;100071.91;5056914;27;98962;-71
2023/03/31 01:59:27;;;;;;;5.85;0.95;;;;;;;14.55;60.56;100072.13;5056709;27;97597;-72
2023/03/31 02:01:59;;;;;;;3.80;1.10;;;;;;;14.69;60.26;100074.75;5057578;27;97755;-71
2023/03/31 02:04:30;;;;;;;9.57;1.55;;;;;;;14.63;60.60;100064.53;5049991;27;98946;-72
2023/03/31 02:07:02;;;;;;;4.10;1.10;;;;;;;14.70;60.13;100068.47;5057925;27;99693;-71
2023/03/31 02:09:35;;;;;;;9.15;1.33;;;;;;;14.53;61.06;100068.69;5056559;27;97003;-71
2023/03/31 02:12:05;;;;;;;7.10;1.17;;;;;;;14.86;59.86;100063.03;5053718;27;97434;-72
2023/03/31 02:14:35;;;;;;;6.95;1.10;;;;;;;14.77;59.89;100061.81;5057024;27;99095;-71
2023/03/31 02:17:04;;;;;;;5.00;0.95;;;;;;;14.97;59.45;100057.88;5053544;27;98768;-71
2023/03/31 02:19:33;;;;;;;2.55;1.00;;;;;;;15.00;59.52;100052.38;5060659;27;97624;-71
2023/03/31 02:22:03;;;;;;;2.35;0.90;;;;;;;14.86;59.75;100054.22;5052199;27;98202;-71
2023/03/31 02:24:35;;;;;;;7.68;1.23;;;;;;;14.90;59.53;100050.41;5049794;27;98467;-70
2023/03/31 02:27:09;;;;;;;4.25;1.00;;;;;;;15.04;59.25;100050.34;5058622;27;98867;-71
2023/03/31 02:29:35;;;;;;;8.35;1.35;;;;;;;14.97;59.05;100043.72;5060889;27;96811;-71
2023/03/31 02:32:08;;;;;;;3.80;0.95;;;;;;;14.99;59.19;100040.03;5049022;27;98980;-71
2023/03/31 02:34:35;;;;;;;4.68;0.90;;;;;;;15.10;58.63;100047.28;5051795;27;99519;-71
2023/03/31 02:37:02;;;;;;;4.45;1.13;;;;;;;15.04;59.30;100050.34;5062443;27;98909;-71
2023/03/31 02:39:33;;;;;;;4.88;1.15;;;;;;;15.08;58.92;100030.59;5058520;27;97132;-71
2023/03/31 02:42:05;;;;;;;5.90;1.15;;;;;;;15.14;58.75;100028.41;5056248;27;97381;-71
2023/03/31 02:44:33;;;;;;;4.55;1.10;;;;;;;15.24;58.85;100027.78;5052903;27;99002;-71
2023/03/31 02:47:00;;;;;;;8.02;1.20;;;;;;;15.13;58.62;100026.69;5059701;27;97864;-72
2023/03/31 02:49:26;;;;;;;1.88;0.77;;;;;;;15.24;58.75;100025.09;5055651;27;98767;-75
2023/03/31 02:52:16;;;;;;;4.70;1.25;;;;;;;15.26;58.46;100021.41;5051365;27;96860;-75
2023/03/31 02:55:24;;;;;;;6.25;1.10;;;;;;;15.24;58.40;100012.66;5054559;27;98157;-75
2023/03/31 02:58:22;;;;;;;4.82;0.93;;;;;;;15.20;58.90;100016.50;4981729;28;98850;-74
2023/03/31 03:01:06;;;;;;;6.68;0.90;;;;;;;15.29;58.71;100010.56;4978564;28;97519;-74
2023/03/31 03:03:42;;;;;;;4.55;1.25;;;;;;;15.23;58.65;100004.78;5041369;27;97958;-75
2023/03/31 03:06:29;;;;;;;6.65;1.10;;;;;;;14.96;59.18;99999.47;5053140;27;98955;-75
2023/03/31 03:09:07;;;;;;;5.88;1.58;;;;;;;15.22;58.49;100003.09;5051488;27;98818;-75
2023/03/31 03:11:44;;;;;;;4.28;0.75;;;;;;;15.20;58.49;100003.19;5064257;27;97405;-75
2023/03/31 03:14:29;;;;;;;7.38;0.98;;;;;;;15.26;58.54;100002.78;5063022;27;97292;-76
2023/03/31 03:17:02;;;;;;;5.97;1.13;;;;;;;15.13;58.52;100005.41;5062472;27;98288;-77
2023/03/31 03:19:29;;;;;;;6.07;1.83;;;;;;;15.10;58.85;99999.41;5056585;27;98760;-74
2023/03/31 03:21:55;;;;;;;4.22;1.00;;;;;;;15.30;58.65;99993.63;5060564;27;96775;-75
2023/03/31 03:24:22;;;;;;;4.82;1.08;;;;;;;15.35;58.64;99998.66;5056514;27;96975;-75
2023/03/31 03:26:48;;;;;;;4.05;1.33;;;;;;;15.17;58.87;99995.38;5054429;27;99089;-74
2023/03/31 03:29:15;;;;;;;5.00;1.10;;;;;;;15.14;59.13;99985.81;5053423;27;99332;-73
2023/03/31 03:31:41;;;;;;;2.67;1.00;;;;;;;15.11;58.76;99985.16;5051237;27;96861;-74
2023/03/31 03:34:10;;;;;;;5.50;0.80;;;;;;;15.08;59.02;99980.03;5054738;27;97434;-77
2023/03/31 03:36:37;;;;;;;2.55;0.80;;;;;;;15.09;59.06;99981.75;5053530;27;98532;-74
2023/03/31 03:39:04;;;;;;;2.75;0.80;;;;;;;15.25;58.85;99981.56;5062541;27;98868;-74
2023/03/31 03:41:32;;;;;;;3.13;0.98;;;;;;;15.01;59.54;99973.41;5051584;27;96796;-77
2023/03/31 03:43:58;;;;;;;5.43;1.55;;;;;;;15.19;59.12;99972.19;5054332;27;97852;-75
2023/03/31 03:46:24;;;;;;;6.20;1.10;;;;;;;15.19;59.25;99974.84;5060453;27;98824;-75
2023/03/31 03:48:51;;;;;;;5.57;0.73;;;;;;;15.28;58.80;99965.41;5052530;27;98806;-74
2023/03/31 03:51:19;;;;;;;4.53;0.90;;;;;;;15.15;59.38;99965.38;5062271;27;98133;-75
2023/03/31 03:53:45;;;;;;;3.97;0.88;;;;;;;15.18;59.67;99962.50;5062424;27;96789;-75
2023/03/31 03:56:11;;;;;;;4.07;1.02;;;;;;;15.22;59.33;99964.03;5063175;27;98993;-75
2023/03/31 03:58:38;;;;;;;6.22;1.05;;;;;;;15.24;59.47;99959.44;5059774;27;98901;-74
2023/03/31 04:01:04;;;;;;;9.95;1.35;;;;;;;15.35;59.12;99962.25;5055748;27;96765;-74
2023/03/31 04:03:31;;;;;;;3.58;0.93;;;;;;;15.54;58.63;99948.56;5052445;27;97336;-75
2023/03/31 04:05:58;;;;;;;3.63;0.85;;;;;;;15.49;58.84;99954.16;5060619;27;99014;-75
2023/03/31 04:08:26;;;;;;;5.10;1.08;;;;;;;15.35;58.78;99946.28;5055554;27;99215;-72
2023/03/31 04:10:52;;;;;;;5.47;1.00;;;;;;;15.36;59.05;99939.13;5052841;27;97775;-71
2023/03/31 04:13:21;;;;;;;5.75;0.98;;;;;;;15.33;59.58;99942.00;5049624;27;97639;-73
2023/03/31 04:15:48;;;;;;;3.42;0.80;;;;;;;15.34;59.51;99949.88;5057414;27;101703;-72
2023/03/31 04:18:21;;;;;;;6.65;0.90;;;;;;;15.07;59.98;99941.94;5059884;27;99304;-72
2023/03/31 04:20:53;;;;;;;5.97;0.90;;;;;;;15.30;59.70;99936.88;5058186;27;96963;-72
2023/03/31 04:23:22;;;;;;;6.88;1.10;;;;;;;15.16;59.72;99935.97;5056133;27;96961;-73
2023/03/31 04:25:50;;;;;;;4.07;1.00;;;;;;;15.25;60.00;99929.19;5056463;27;99218;-72
2023/03/31 04:28:17;;;;;;;3.13;1.02;;;;;;;15.19;60.14;99932.28;5053269;27;101900;-72
2023/03/31 04:30:43;;;;;;;6.72;1.00;;;;;;;15.29;59.70;99925.41;5055498;27;98736;-73
2023/03/31 04:33:09;;;;;;;4.18;0.95;;;;;;;15.06;60.21;99920.75;5051526;27;97807;-72
2023/03/31 04:35:48;;;;;;;7.18;1.05;;;;;;;15.08;60.32;99911.72;5054531;27;99497;-71
2023/03/31 04:38:17;;;;;;;2.88;0.80;;;;;;;15.10;60.50;99915.09;5063965;27;98851;-71
2023/03/31 04:40:44;;;;;;;3.47;1.17;;;;;;;15.05;60.69;99914.56;5058598;27;97227;-72
2023/03/31 04:43:12;;;;;;;7.90;1.20;;;;;;;15.14;60.53;99908.66;5052062;27;97878;-73
2023/03/31 04:45:38;;;;;;;3.95;1.00;;;;;;;15.21;60.03;99906.41;5060228;27;99256;-71
2023/03/31 04:48:05;;;;;;;4.07;1.00;;;;;;;15.18;60.40;99903.09;5052961;27;98893;-72
2023/03/31 04:50:32;;;;;;;3.50;1.15;;;;;;;14.91;60.97;99901.34;5058534;27;97981;-71
2023/03/31 04:52:58;;;;;;;4.60;0.93;;;;;;;15.08;60.72;99894.91;5057873;27;99966;-72
2023/03/31 04:55:25;;;;;;;7.05;1.27;;;;;;;15.14;60.69;99902.47;5054225;27;99007;-72
2023/03/31 04:57:52;;;;;;;6.68;1.08;;;;;;;15.25;60.44;99899.06;5054935;27;99134;-72
2023/03/31 05:00:21;;;;;;;6.40;1.63;;;;;;;15.22;60.20;99889.50;5059401;27;97759;-73
2023/03/31 05:02:48;;;;;;;5.30;1.30;;;;;;;15.25;59.99;99891.94;5053522;27;97157;-72
2023/03/31 05:05:14;;;;;;;4.68;1.00;;;;;;;15.10;60.57;99885.84;5051933;27;98921;-72
2023/03/31 05:07:43;;;;;;;5.88;1.10;;;;;;;15.13;60.16;99880.31;5052347;27;99172;-70
2023/03/31 05:10:10;;;;;;;8.00;1.02;;;;;;;14.74;61.21;99883.84;5059055;27;99244;-71
2023/03/31 05:12:37;;;;;;;3.22;0.90;;;;;;;14.77;61.54;99873.00;5058416;27;99465;-71
2023/03/31 05:15:05;;;;;;;4.53;1.15;;;;;;;14.68;61.92;99865.66;5055157;27;101445;-72
2023/03/31 05:17:35;;;;;;;6.55;1.15;;;;;;;14.68;61.96;99863.00;5055474;27;101278;-72
2023/03/31 05:20:04;;;;;;;6.53;1.30;;;;;;;14.71;61.57;99865.44;5048852;27;97156;-72
2023/03/31 05:22:34;;;;;;;4.35;1.10;;;;;;;14.69;61.68;99859.38;5049898;27;96940;-73
2023/03/31 05:25:00;;;;;;;4.78;1.10;;;;;;;14.55;61.91;99864.75;5051374;27;99116;-72
2023/03/31 05:27:27;;;;;;;5.47;1.13;;;;;;;14.47;62.38;99864.38;5052378;27;99774;-71
2023/03/31 05:29:53;;;;;;;4.03;0.90;;;;;;;14.46;62.76;99862.69;5053950;27;96843;-71
2023/03/31 05:32:20;;;;;;;5.35;1.13;;;;;;;14.55;62.22;99859.44;5054089;27;96912;-72
2023/03/31 05:34:51;;;;;;;6.10;1.08;;;;;;;14.59;62.30;99855.59;5050995;27;98249;-73
2023/03/31 05:37:18;;;;;;;4.70;1.42;;;;;;;14.64;61.68;99847.31;5054212;27;98867;-74
2023/03/31 05:39:44;;;;;;;9.05;1.20;;;;;;;15.00;60.90;99846.66;5052723;27;96804;-75
2023/03/31 05:42:10;;;;;;;4.10;0.90;;;;;;;15.15;59.99;99845.63;5049469;27;97366;-74
2023/03/31 05:44:37;;;;;;;7.53;1.60;;;;;;;15.25;59.78;99843.19;5049394;27;99464;-74
2023/03/31 05:47:03;;;;;;;8.45;1.58;;;;;;;15.29;59.91;99856.19;5052125;27;101856;-75
2023/03/31 05:49:30;;;;;;;6.60;1.92;;;;;;;15.40;59.43;99834.16;5054086;27;97127;-74
2023/03/31 05:51:58;;;;;;;8.93;1.45;;;;;;;15.39;59.51;99833.28;5056128;27;98079;-75
2023/03/31 05:54:24;;;;;;;5.78;1.10;;;;;;;15.50;59.00;99828.06;5050871;27;101944;-76
2023/03/31 05:56:51;;;;;;;4.47;1.30;;;;;;;15.56;58.74;99823.31;5057155;27;97737;-75
2023/03/31 05:59:18;;;;;;;6.05;1.35;;;;;;;15.61;58.45;99831.81;5054904;27;96991;-75
2023/03/31 06:01:44;;;;;;;4.60;0.95;;;;;;;15.52;58.40;99823.53;5060738;27;98069;-75
2023/03/31 06:04:11;;;;;;;6.20;1.13;;;;;;;15.42;58.80;99822.44;5053591;27;98921;-76
2023/03/31 06:06:37;;;;;;;10.38;2.30;;;;;;;15.59;58.46;99815.09;5059937;27;99152;-76
2023/03/31 06:09:06;;;;;;;5.18;1.50;;;;;;;15.54;58.51;99815.44;5054047;27;97635;-75
2023/03/31 06:11:32;;;;;;;9.48;1.27;;;;;;;15.60;58.33;99812.34;5051604;27;96849;-75
2023/03/31 06:13:59;;;;;;;9.10;1.75;;;;;;;15.50;58.40;99812.09;5057528;27;98856;-75
2023/03/31 06:16:27;;;;;;;10.13;1.90;;;;;;;15.43;58.89;99816.13;5059216;27;98869;-75
2023/03/31 06:18:54;;;;;;;13.27;1.95;;;;;;;15.19;59.37;99803.69;5055343;27;97278;-75
2023/03/31 06:21:21;;;;;;;7.82;1.92;;;;;;;15.34;58.80;99800.81;5051517;27;97092;-75
2023/03/31 06:23:48;;;;;;;8.07;1.85;;;;;;;15.37;58.96;99797.94;5054593;27;99173;-76
2023/03/31 06:26:17;;;;;;;4.47;1.20;;;;;;;15.35;58.92;99794.53;5053475;27;99188;-77
2023/03/31 06:28:44;;;;;;;8.07;1.25;;;;;;;15.59;58.01;99799.13;5055400;27;97817;-76
2023/03/31 06:31:12;;;;;;;7.72;1.40;;;;;;;15.47;58.29;99799.00;5045587;27;97257;-76
2023/03/31 06:33:40;;;;;;;9.02;1.77;;;;;;;15.75;57.60;99784.59;5053010;27;97734;-74
2023/03/31 06:36:07;;;;;;;8.40;1.75;;;;;;;15.77;57.43;99781.81;5057090;27;101495;-77
2023/03/31 06:38:35;;;;;;;10.55;1.98;;;;;;;15.76;57.76;99785.44;5059092;27;97196;-75
2023/03/31 06:41:01;;;;;;;10.55;1.60;;;;;;;15.94;57.27;99784.13;5052736;27;97617;-75
2023/03/31 06:43:29;;;;;;;10.60;1.55;;;;;;;16.03;56.37;99786.09;5056111;27;98967;-75
2023/03/31 06:45:56;;;;;;;7.28;1.30;;;;;;;16.17;56.28;99782.44;5059822;27;98747;-71
2023/03/31 06:48:23;;;;;;;6.95;1.60;;;;;;;16.24;56.18;99781.88;5055817;27;97478;-72
2023/03/31 06:50:50;;;;;;;6.68;1.65;;;;;;;16.48;55.39;99781.00;5060859;27;97797;-71
2023/03/31 06:53:16;;;;;;;7.53;1.33;;;;;;;16.56;55.14;99770.63;5055938;27;99020;-72
2023/03/31 06:55:43;;;;;;;11.15;3.08;;;;;;;16.84;54.51;99778.25;5065256;27;98894;-71
2023/03/31 06:58:10;;;;;;;5.68;1.52;;;;;;;16.50;55.04;99771.06;5063378;27;97099;-73
2023/03/31 07:00:38;;;;;;;5.68;1.33;;;;;;;16.49;54.88;99772.03;5054388;27;98239;-71
2023/03/31 07:03:05;;;;;;;8.50;1.90;;;;;;;16.59;54.96;99770.41;5057081;27;99103;-73
2023/03/31 07:05:32;;;;;;;12.52;1.48;;;;;;;16.90;53.87;99766.28;5051589;27;99494;-72
2023/03/31 07:07:59;;;;;;;8.57;1.35;;;;;;;17.05;53.75;99773.09;5062204;27;97182;-72
2023/03/31 07:10:27;;;;;;;7.45;1.80;;;;;;;17.16;53.39;99764.25;5054091;27;96993;-76
2023/03/31 07:12:54;;;;;;;9.80;1.63;;;;;;;17.32;53.04;99754.94;5051619;27;99210;-76
2023/03/31 07:15:21;;;;;;;15.35;1.88;;;;;;;17.44;52.83;99753.97;5052173;27;98814;-76
2023/03/31 07:17:49;;;;;;;9.77;1.92;;;;;;;17.38;52.33;99749.09;5056298;27;97054;-77
2023/03/31 07:20:18;;;;;;;10.32;2.15;;;;;;;17.66;51.94;99745.09;5059355;27;97723;-75
2023/03/31 07:22:46;;;;;;;9.55;1.55;;;;;;;17.79;51.40;99732.44;5054331;27;101399;-76
2023/03/31 07:25:15;;;;;;;7.85;1.70;;;;;;;17.86;50.95;99733.63;5052394;27;99115;-75
2023/03/31 07:27:42;;;;;;;4.82;1.27;;;;;;;17.98;50.90;99737.16;5051374;27;96799;-75
2023/03/31 07:30:10;;;;;;;8.85;1.55;;;;;;;17.99;51.12;99733.47;5056065;27;97409;-76
2023/03/31 07:32:38;;;;;;;10.30;2.05;;;;;;;18.07;50.50;99735.53;5058934;27;97612;-75
2023/03/31 07:35:08;;;;;;;7.55;1.80;;;;;;;17.97;50.62;99737.28;5061357;27;98870;-76
2023/03/31 07:37:35;;;;;;;8.75;2.10;;;;;;;17.77;51.16;99739.75;5055961;27;97099;-75
2023/03/31 07:40:03;;;;;;;11.48;1.35;;;;;;;17.75;50.82;99739.00;5050027;27;97068;-76
2023/03/31 07:42:30;;;;;;;14.50;2.28;;;;;;;17.79;50.71;99729.78;5068169;27;99118;-75
2023/03/31 07:44:57;;;;;;;7.05;2.10;;;;;;;17.88;50.58;99725.50;5062458;27;98777;-76
2023/03/31 07:47:24;;;;;;;7.82;1.58;;;;;;;17.85;50.34;99723.09;5054320;27;97296;-76
2023/03/31 07:49:50;;;;;;;9.23;1.58;;;;;;;17.83;50.52;99720.53;5051747;27;96868;-75
2023/03/31 07:52:18;;;;;;;8.43;1.35;;;;;;;17.82;50.50;99720.66;5053459;27;98800;-77
2023/03/31 07:54:45;;;;;;;9.18;1.73;;;;;;;18.13;50.19;99719.00;5051691;27;101583;-75
2023/03/31 07:57:12;;;;;;;9.30;1.73;;;;;;;18.45;49.68;99714.47;5057116;27;97275;-76
2023/03/31 07:59:39;;;;;;;13.23;2.25;;;;;;;18.95;48.34;99717.38;5058230;27;96902;-76
2023/03/31 08:02:06;;;;;;;8.02;1.50;;;;;;;18.72;47.77;99711.31;5050420;27;98905;-75
2023/03/31 08:04:33;;;;;;;16.23;1.85;;;;;;;18.60;48.66;99707.88;5056878;27;98705;-76
2023/03/31 08:06:59;;;;;;;7.47;1.23;;;;;;;18.46;49.08;99712.66;5056702;27;97243;-77
2023/03/31 08:09:27;;;;;;;12.65;1.50;;;;;;;18.62;48.21;99694.38;5056737;27;97066;-74
2023/03/31 08:11:54;;;;;;;7.43;1.50;;;;;;;18.78;48.46;99696.56;5052504;27;99010;-77
2023/03/31 08:14:20;;;;;;;13.43;1.60;;;;;;;18.62;48.41;99691.69;5059673;27;98963;-76
2023/03/31 08:16:46;;;;;;;4.93;1.25;;;;;;;18.72;48.76;99687.22;5060917;27;97143;-77
2023/03/31 08:19:13;;;;;;;11.63;1.92;;;;;;;19.02;48.00;99681.06;5057835;27;96875;-75
2023/03/31 08:21:39;;;;;;;7.32;1.73;;;;;;;19.19;47.61;99683.13;5055092;27;98925;-76
2023/03/31 08:24:06;;;;;;;5.68;1.70;;;;;;;18.98;47.23;99684.97;5053148;27;98806;-74
2023/03/31 08:26:33;;;;;;;8.43;1.10;;;;;;;18.90;48.10;99679.47;5060344;27;96957;-76
2023/03/31 08:29:00;;;;;;;6.95;1.77;;;;;;;19.30;46.81;99672.28;5057017;27;97425;-75
2023/03/31 08:31:27;;;;;;;7.38;1.50;;;;;;;19.72;45.85;99672.16;5060696;27;98908;-76
2023/03/31 08:33:54;;;;;;;6.32;1.27;;;;;;;19.75;45.65;99669.22;5053929;27;98796;-75
2023/03/31 08:36:21;;;;;;;7.30;1.50;;;;;;;19.82;45.68;99673.06;5064740;27;97151;-76
2023/03/31 08:38:48;;;;;;;9.07;1.58;;;;;;;19.85;45.31;99654.00;5054604;27;97242;-76
2023/03/31 08:41:34;;;;;;;6.35;1.50;;;;;;;20.10;44.37;99658.81;5057573;27;97939;-76
2023/03/31 08:44:07;;;;;;;8.13;1.45;;;;;;;19.99;44.62;99656.25;5052005;27;98306;-77
2023/03/31 08:46:35;;;;;;;6.63;1.50;;;;;;;19.77;44.83;99651.16;5061911;27;97065;-76
2023/03/31 08:49:04;;;;;;;5.32;1.30;;;;;;;19.76;44.86;99633.38;5064944;27;96911;-77
2023/03/31 08:51:34;;;;;;;9.68;1.50;;;;;;;19.53;45.45;99637.31;5058757;27;100365;-76
2023/03/31 08:54:02;;;;;;;6.60;1.58;;;;;;;19.67;45.18;99635.06;5055850;27;98801;-76
2023/03/31 08:56:33;;;;;;;6.97;1.30;;;;;;;19.43;45.58;99630.03;5058614;27;97184;-76
2023/03/31 08:59:01;;;;;;;10.00;1.20;;;;;;;19.11;46.75;99634.75;5059531;27;96811;-75
2023/03/31 09:01:38;;;;;;;8.75;1.50;;;;;;;19.03;46.89;99629.25;5062003;27;101915;-76
2023/03/31 09:04:20;;;;;;;5.47;1.10;;;;;;;19.37;45.55;99632.41;5054494;27;97641;-76
2023/03/31 09:06:54;;;;;;;4.22;1.25;;;;;;;19.33;46.02;99631.00;5053422;27;97460;-76
2023/03/31 09:09:29;;;;;;;8.00;1.30;;;;;;;19.59;45.87;99621.50;5053344;27;96847;-77
2023/03/31 09:12:01;;;;;;;7.18;0.98;;;;;;;19.76;45.67;99618.13;5056793;27;99199;-76
2023/03/31 09:14:34;;;;;;;10.70;1.50;;;;;;;19.67;45.69;99618.16;5055190;27;98147;-76
2023/03/31 09:17:13;;;;;;;10.25;1.23;;;;;;;20.03;45.01;99608.56;5052505;27;97140;-76
2023/03/31 09:19:43;;;;;;;6.43;1.30;;;;;;;20.41;43.80;99607.72;5057051;27;100541;-76
2023/03/31 09:22:16;;;;;;;10.23;1.63;;;;;;;20.58;42.91;99610.50;5050504;27;98939;-76
2023/03/31 09:24:48;;;;;;;9.52;1.67;;;;;;;20.67;43.04;99595.38;5051014;27;98819;-78
2023/03/31 09:27:15;;;;;;;7.28;1.48;;;;;;;20.70;43.04;99597.72;5050703;27;97417;-76
2023/03/31 09:29:44;;;;;;;8.13;1.65;;;;;;;20.82;42.40;99598.41;5054681;27;97268;-75
2023/03/31 09:32:16;;;;;;;8.32;2.00;;;;;;;20.72;42.17;99590.41;5053057;27;99582;-76
2023/03/31 09:34:45;;;;;;;8.32;1.27;;;;;;;20.64;42.47;99587.59;5059223;27;98863;-76
2023/03/31 09:37:12;;;;;;;11.73;2.22;;;;;;;20.93;42.66;99593.72;5053515;27;97318;-76
2023/03/31 09:39:40;;;;;;;10.43;1.88;;;;;;;20.75;42.20;99584.72;5053352;27;97331;-76
2023/03/31 09:42:09;;;;;;;7.95;1.13;;;;;;;20.20;43.63;99575.66;5049110;27;99164;-77
2023/03/31 09:44:39;;;;;;;6.85;1.38;;;;;;;20.38;43.18;99559.69;5058810;27;98713;-75
2023/03/31 09:47:10;;;;;;;6.35;1.50;;;;;;;20.67;43.11;99557.78;5053648;27;96919;-76
2023/03/31 09:49:39;;;;;;;4.68;1.23;;;;;;;20.20;43.44;99552.38;5056979;27;96797;-76
2023/03/31 09:52:13;;;;;;;6.47;1.25;;;;;;;20.17;43.74;99549.13;5058543;27;98214;-76
2023/03/31 09:54:45;;;;;;;7.82;1.30;;;;;;;20.25;43.44;99539.38;5054392;27;102083;-75
2023/03/31 09:57:15;;;;;;;6.60;1.38;;;;;;;19.75;44.14;99545.94;5058752;27;97105;-75
2023/03/31 09:59:42;;;;;;;8.05;2.00;;;;;;;19.39;45.03;99536.72;5054715;27;97553;-76
2023/03/31 10:02:28;;;;;;;4.70;1.42;;;;;;;19.18;45.75;99534.13;5057902;27;99504;-75
2023/03/31 10:04:56;;;;;;;3.85;0.90;;;;;;;19.40;45.52;99530.38;5051829;27;97878;-76
2023/03/31 10:07:24;;;;;;;4.50;1.13;;;;;;;18.89;46.66;99530.56;5057057;27;98622;-75
2023/03/31 10:09:51;;;;;;;6.18;1.50;;;;;;;18.69;47.26;99529.66;5048441;27;97260;-75
2023/03/31 10:12:23;;;;;;;6.13;1.50;;;;;;;18.78;47.60;99522.63;5052928;27;98841;-76
2023/03/31 10:14:51;;;;;;;6.05;1.20;;;;;;;18.84;47.67;99520.25;5055457;27;99356;-75
2023/03/31 10:17:20;;;;;;;5.70;1.27;;;;;;;18.87;47.41;99516.47;5059706;27;96678;-76
2023/03/31 10:19:51;;;;;;;7.03;1.45;;;;;;;18.61;48.62;99516.94;5060773;27;96837;-75
2023/03/31 10:22:31;;;;;;;4.57;1.20;;;;;;;18.33;49.18;99512.25;5062532;27;99664;-75
2023/03/31 10:25:10;;;;;;;8.32;1.38;;;;;;;18.36;49.81;99506.66;5057470;27;99143;-75
2023/03/31 10:27:39;;;;;;;7.13;1.33;;;;;;;18.75;49.14;99502.34;5058247;27;97089;-75
2023/03/31 10:30:10;;;;;;;6.80;1.30;;;;;;;18.60;49.58;99501.00;5067339;27;96812;-76
2023/03/31 10:32:41;;;;;;;7.18;1.60;;;;;;;18.84;48.70;99506.84;5062693;27;97724;-76
2023/03/31 10:35:20;;;;;;;2.50;1.30;;;;;;;19.35;47.45;99505.84;5064939;27;98943;-75
2023/03/31 10:37:49;;;;;;;6.07;1.20;;;;;;;19.65;47.00;99494.16;5063758;27;96750;-76
2023/03/31 10:40:21;;;;;;;5.18;1.15;;;;;;;19.89;45.84;99479.31;5066367;27;97827;-75
2023/03/31 10:42:58;;;;;;;5.05;0.90;;;;;;;20.12;44.18;99485.19;5061378;27;99199;-76
2023/03/31 10:45:26;;;;;;;4.43;1.10;;;;;;;19.71;45.41;99486.41;5068010;27;99026;-77
2023/03/31 10:47:57;;;;;;;4.95;1.50;;;;;;;19.92;45.01;99488.91;5061709;27;96878;-76
2023/03/31 10:50:29;;;;;;;4.13;1.60;;;;;;;19.36;46.46;99494.97;5061062;27;97735;-76
2023/03/31 10:53:04;;;;;;;5.15;1.13;;;;;;;19.22;46.57;99490.06;5064248;27;99480;-76
2023/03/31 10:55:36;;;;;;;9.88;1.40;;;;;;;19.20;47.45;99481.31;5061722;27;98983;-75
2023/03/31 10:58:09;;;;;;;5.40;1.75;;;;;;;19.26;47.58;99474.53;5063174;27;96964;-76
2023/03/31 11:00:47;;;;;;;8.25;1.33;;;;;;;19.32;48.26;99464.09;5058346;27;97168;-75
2023/03/31 11:03:31;;;;;;;4.55;1.15;;;;;;;19.56;48.54;99473.59;5057071;27;99310;-75
2023/03/31 11:06:04;;;;;;;4.15;1.20;;;;;;;19.64;48.27;99465.66;5060730;27;98896;-75
2023/03/31 11:08:44;;;;;;;4.60;1.45;;;;;;;20.20;47.33;99453.13;5060386;27;96746;-75
2023/03/31 11:11:26;;;;;;;5.72;1.30;;;;;;;20.27;46.32;99456.94;5064433;27;97321;-77
2023/03/31 11:14:00;;;;;;;6.05;1.38;;;;;;;20.56;46.59;99462.19;5062432;27;98606;-76
2023/03/31 11:16:34;;;;;;;4.25;1.08;;;;;;;20.64;46.76;99454.25;5061694;27;101033;-75
2023/03/31 11:19:19;;;;;;;4.53;1.20;;;;;;;20.54;46.33;99442.72;5060703;27;97160;-76
2023/03/31 11:21:56;;;;;;;6.30;1.55;;;;;;;20.45;46.75;99453.50;5058413;27;96867;-76
2023/03/31 11:24:37;;;;;;;6.15;1.23;;;;;;;20.02;47.42;99446.81;5060008;27;97772;-75
2023/03/31 11:27:17;;;;;;;3.42;1.25;;;;;;;20.05;47.66;99441.19;5059039;27;98913;-75
2023/03/31 11:29:51;;;;;;;4.15;1.40;;;;;;;20.03;47.88;99435.13;5063044;27;97426;-75
2023/03/31 11:32:33;;;;;;;3.97;1.00;;;;;;;20.25;46.79;99420.50;5055762;27;96867;-76
2023/03/31 11:35:13;;;;;;;8.27;1.25;;;;;;;20.25;45.41;99421.34;5054644;27;101664;-75
2023/03/31 11:38:00;;;;;;;6.00;1.08;;;;;;;20.30;45.19;99408.34;5059630;27;101927;-76
2023/03/31 11:40:52;;;;;;;5.80;1.02;;;;;;;20.39;45.06;99400.44;5054647;27;97232;-75
2023/03/31 11:43:27;;;;;;;5.63;1.27;;;;;;;20.40;45.03;99396.75;5057783;27;96850;-76
2023/03/31 11:45:59;;;;;;;7.03;2.15;;;;;;;20.15;45.05;99396.41;5059468;27;98958;-76